sensor_id;sensor_type;location;lat;lon;timestamp;P1;durP1;ratioP1;P2;durP2;ratioP2
47659;SDS011;33403;43.608;1.458;2023-09-19T00:00:37;6.03;;;2.30;;
47659;SDS011;33403;43.608;1.458;2023-09-19T00:03:03;6.47;;;2.33;;
47659;SDS011;33403;43.608;1.458;2023-09-19T00:05:33;7.55;;;2.45;;
47659;SDS011;33403;43.608;1.458;2023-09-19T00:08:00;7.60;;;2.50;;
47659;SDS011;33403;43.608;1.458;2023-09-19T00:10:26;10.45;;;2.40;;
47659;SDS011;33403;43.608;1.458;2023-09-19T00:12:56;9.60;;;2.58;;
47659;SDS011;33403;43.608;1.458;2023-09-19T00:15:25;5.30;;;1.85;;
47659;SDS011;33403;43.608;1.458;2023-09-19T00:17:53;8.70;;;2.70;;
47659;SDS011;33403;43.608;1.458;2023-09-19T00:20:20;7.32;;;2.28;;
47659;SDS011;33403;43.608;1.458;2023-09-19T00:22:48;8.40;;;2.20;;
47659;SDS011;33403;43.608;1.458;2023-09-19T00:25:18;5.57;;;2.05;;
47659;SDS011;33403;43.608;1.458;2023-09-19T00:27:45;7.10;;;2.00;;
47659;SDS011;33403;43.608;1.458;2023-09-19T00:30:16;5.72;;;2.17;;
47659;SDS011;33403;43.608;1.458;2023-09-19T00:32:45;5.65;;;1.83;;
47659;SDS011;33403;43.608;1.458;2023-09-19T00:35:14;6.55;;;2.17;;
47659;SDS011;33403;43.608;1.458;2023-09-19T00:37:40;5.65;;;2.30;;
47659;SDS011;33403;43.608;1.458;2023-09-19T00:40:07;9.18;;;2.40;;
47659;SDS011;33403;43.608;1.458;2023-09-19T00:42:44;6.75;;;1.98;;
47659;SDS011;33403;43.608;1.458;2023-09-19T00:45:11;5.32;;;2.20;;
47659;SDS011;33403;43.608;1.458;2023-09-19T00:47:39;4.55;;;1.90;;
47659;SDS011;33403;43.608;1.458;2023-09-19T00:50:15;6.60;;;2.42;;
47659;SDS011;33403;43.608;1.458;2023-09-19T00:52:47;5.93;;;2.42;;
47659;SDS011;33403;43.608;1.458;2023-09-19T00:55:15;7.35;;;2.47;;
47659;SDS011;33403;43.608;1.458;2023-09-19T00:57:41;6.75;;;2.47;;
47659;SDS011;33403;43.608;1.458;2023-09-19T01:00:09;7.03;;;2.20;;
47659;SDS011;33403;43.608;1.458;2023-09-19T01:02:37;6.60;;;2.05;;
47659;SDS011;33403;43.608;1.458;2023-09-19T01:05:03;9.57;;;2.45;;
47659;SDS011;33403;43.608;1.458;2023-09-19T01:07:31;7.82;;;2.28;;
47659;SDS011;33403;43.608;1.458;2023-09-19T01:10:02;10.20;;;2.67;;
47659;SDS011;33403;43.608;1.458;2023-09-19T01:12:57;7.35;;;2.25;;
47659;SDS011;33403;43.608;1.458;2023-09-19T01:23:21;4.70;;;2.10;;
47659;SDS011;33403;43.608;1.458;2023-09-19T01:26:07;7.65;;;2.33;;
47659;SDS011;33403;43.608;1.458;2023-09-19T01:28:39;8.05;;;2.20;;
47659;SDS011;33403;43.608;1.458;2023-09-19T01:31:09;4.63;;;1.92;;
47659;SDS011;33403;43.608;1.458;2023-09-19T01:36:22;7.00;;;2.50;;
47659;SDS011;33403;43.608;1.458;2023-09-19T01:38:49;4.82;;;1.90;;
47659;SDS011;33403;43.608;1.458;2023-09-19T01:41:16;6.53;;;1.98;;
47659;SDS011;33403;43.608;1.458;2023-09-19T01:43:50;6.70;;;2.20;;
47659;SDS011;33403;43.608;1.458;2023-09-19T01:46:19;7.43;;;2.22;;
47659;SDS011;33403;43.608;1.458;2023-09-19T01:49:09;6.75;;;2.00;;
47659;SDS011;33403;43.608;1.458;2023-09-19T01:51:53;5.80;;;2.17;;
47659;SDS011;33403;43.608;1.458;2023-09-19T01:54:55;6.10;;;2.30;;
47659;SDS011;33403;43.608;1.458;2023-09-19T01:57:27;9.20;;;2.10;;
47659;SDS011;33403;43.608;1.458;2023-09-19T02:00:09;5.57;;;1.80;;
47659;SDS011;33403;43.608;1.458;2023-09-19T02:02:40;9.13;;;2.50;;
47659;SDS011;33403;43.608;1.458;2023-09-19T02:05:09;4.45;;;2.00;;
47659;SDS011;33403;43.608;1.458;2023-09-19T02:07:35;6.13;;;1.90;;
47659;SDS011;33403;43.608;1.458;2023-09-19T02:10:03;10.05;;;2.30;;
47659;SDS011;33403;43.608;1.458;2023-09-19T02:12:30;7.80;;;2.30;;
47659;SDS011;33403;43.608;1.458;2023-09-19T02:14:58;8.65;;;2.15;;
47659;SDS011;33403;43.608;1.458;2023-09-19T02:17:24;5.78;;;1.77;;
47659;SDS011;33403;43.608;1.458;2023-09-19T02:19:53;3.78;;;2.00;;
47659;SDS011;33403;43.608;1.458;2023-09-19T02:22:20;4.00;;;1.77;;
47659;SDS011;33403;43.608;1.458;2023-09-19T02:24:49;7.82;;;2.20;;
47659;SDS011;33403;43.608;1.458;2023-09-19T02:27:16;6.88;;;2.28;;
47659;SDS011;33403;43.608;1.458;2023-09-19T02:29:42;3.45;;;1.90;;
47659;SDS011;33403;43.608;1.458;2023-09-19T02:32:08;6.78;;;2.20;;
47659;SDS011;33403;43.608;1.458;2023-09-19T02:34:34;6.82;;;1.98;;
47659;SDS011;33403;43.608;1.458;2023-09-19T02:37:02;8.48;;;2.55;;
47659;SDS011;33403;43.608;1.458;2023-09-19T02:39:30;9.77;;;2.70;;
47659;SDS011;33403;43.608;1.458;2023-09-19T02:41:56;9.02;;;2.70;;
47659;SDS011;33403;43.608;1.458;2023-09-19T02:44:22;5.97;;;2.13;;
47659;SDS011;33403;43.608;1.458;2023-09-19T02:46:49;5.85;;;1.80;;
47659;SDS011;33403;43.608;1.458;2023-09-19T02:49:15;8.18;;;2.08;;
47659;SDS011;33403;43.608;1.458;2023-09-19T02:51:40;8.93;;;2.20;;
47659;SDS011;33403;43.608;1.458;2023-09-19T02:54:06;5.00;;;2.03;;
47659;SDS011;33403;43.608;1.458;2023-09-19T02:56:32;5.53;;;2.05;;
47659;SDS011;33403;43.608;1.458;2023-09-19T02:58:58;6.63;;;2.30;;
47659;SDS011;33403;43.608;1.458;2023-09-19T03:01:25;5.80;;;2.17;;
47659;SDS011;33403;43.608;1.458;2023-09-19T03:03:53;7.63;;;2.35;;
47659;SDS011;33403;43.608;1.458;2023-09-19T03:06:19;5.68;;;1.98;;
47659;SDS011;33403;43.608;1.458;2023-09-19T03:08:45;7.25;;;2.20;;
47659;SDS011;33403;43.608;1.458;2023-09-19T03:11:11;7.05;;;2.03;;
47659;SDS011;33403;43.608;1.458;2023-09-19T03:13:39;5.25;;;1.98;;
47659;SDS011;33403;43.608;1.458;2023-09-19T03:16:06;6.13;;;2.05;;
47659;SDS011;33403;43.608;1.458;2023-09-19T03:18:35;7.18;;;2.10;;
47659;SDS011;33403;43.608;1.458;2023-09-19T03:21:01;7.85;;;2.20;;
47659;SDS011;33403;43.608;1.458;2023-09-19T03:23:27;5.85;;;2.15;;
47659;SDS011;33403;43.608;1.458;2023-09-19T03:25:54;6.78;;;2.22;;
47659;SDS011;33403;43.608;1.458;2023-09-19T03:28:21;5.90;;;2.00;;
47659;SDS011;33403;43.608;1.458;2023-09-19T03:31:00;6.03;;;2.20;;
47659;SDS011;33403;43.608;1.458;2023-09-19T03:33:30;7.70;;;2.42;;
47659;SDS011;33403;43.608;1.458;2023-09-19T03:35:58;5.75;;;2.05;;
47659;SDS011;33403;43.608;1.458;2023-09-19T03:38:24;7.03;;;2.08;;
47659;SDS011;33403;43.608;1.458;2023-09-19T03:40:50;7.22;;;2.25;;
47659;SDS011;33403;43.608;1.458;2023-09-19T03:43:16;8.35;;;2.13;;
47659;SDS011;33403;43.608;1.458;2023-09-19T03:45:42;5.28;;;2.10;;
47659;SDS011;33403;43.608;1.458;2023-09-19T03:48:08;5.93;;;2.20;;
47659;SDS011;33403;43.608;1.458;2023-09-19T03:50:35;4.05;;;2.08;;
47659;SDS011;33403;43.608;1.458;2023-09-19T03:53:00;7.78;;;2.10;;
47659;SDS011;33403;43.608;1.458;2023-09-19T03:55:27;4.68;;;2.20;;
47659;SDS011;33403;43.608;1.458;2023-09-19T03:57:52;5.95;;;2.05;;
47659;SDS011;33403;43.608;1.458;2023-09-19T04:00:18;4.78;;;2.33;;
47659;SDS011;33403;43.608;1.458;2023-09-19T04:02:47;6.85;;;1.90;;
47659;SDS011;33403;43.608;1.458;2023-09-19T04:05:13;5.35;;;2.08;;
47659;SDS011;33403;43.608;1.458;2023-09-19T04:07:39;4.03;;;2.10;;
47659;SDS011;33403;43.608;1.458;2023-09-19T04:10:05;11.70;;;2.60;;
47659;SDS011;33403;43.608;1.458;2023-09-19T04:12:33;4.78;;;2.17;;
47659;SDS011;33403;43.608;1.458;2023-09-19T04:14:59;9.85;;;2.80;;
47659;SDS011;33403;43.608;1.458;2023-09-19T04:17:25;7.35;;;2.22;;
47659;SDS011;33403;43.608;1.458;2023-09-19T04:19:50;7.68;;;2.08;;
47659;SDS011;33403;43.608;1.458;2023-09-19T04:22:16;7.07;;;2.22;;
47659;SDS011;33403;43.608;1.458;2023-09-19T04:24:42;5.57;;;1.92;;
47659;SDS011;33403;43.608;1.458;2023-09-19T04:27:08;9.40;;;2.38;;
47659;SDS011;33403;43.608;1.458;2023-09-19T04:29:34;5.50;;;2.42;;
47659;SDS011;33403;43.608;1.458;2023-09-19T04:32:00;5.72;;;2.33;;
47659;SDS011;33403;43.608;1.458;2023-09-19T04:34:26;5.65;;;2.13;;
47659;SDS011;33403;43.608;1.458;2023-09-19T04:36:52;8.38;;;2.63;;
47659;SDS011;33403;43.608;1.458;2023-09-19T04:39:18;4.25;;;2.28;;
47659;SDS011;33403;43.608;1.458;2023-09-19T04:41:43;5.20;;;1.80;;
47659;SDS011;33403;43.608;1.458;2023-09-19T04:44:11;8.95;;;2.65;;
47659;SDS011;33403;43.608;1.458;2023-09-19T04:46:38;6.75;;;2.10;;
47659;SDS011;33403;43.608;1.458;2023-09-19T04:49:04;7.68;;;2.17;;
47659;SDS011;33403;43.608;1.458;2023-09-19T04:51:30;6.35;;;2.15;;
47659;SDS011;33403;43.608;1.458;2023-09-19T04:53:59;5.30;;;2.10;;
47659;SDS011;33403;43.608;1.458;2023-09-19T04:56:25;6.07;;;2.30;;
47659;SDS011;33403;43.608;1.458;2023-09-19T04:58:53;6.72;;;2.03;;
47659;SDS011;33403;43.608;1.458;2023-09-19T05:01:19;5.35;;;2.33;;
47659;SDS011;33403;43.608;1.458;2023-09-19T05:03:47;5.35;;;2.22;;
47659;SDS011;33403;43.608;1.458;2023-09-19T05:06:17;6.80;;;2.40;;
47659;SDS011;33403;43.608;1.458;2023-09-19T05:08:43;5.53;;;2.00;;
47659;SDS011;33403;43.608;1.458;2023-09-19T05:11:09;7.13;;;2.30;;
47659;SDS011;33403;43.608;1.458;2023-09-19T05:13:34;9.15;;;2.70;;
47659;SDS011;33403;43.608;1.458;2023-09-19T05:16:00;5.45;;;2.38;;
47659;SDS011;33403;43.608;1.458;2023-09-19T05:18:29;5.80;;;2.17;;
47659;SDS011;33403;43.608;1.458;2023-09-19T05:20:54;7.75;;;2.67;;
47659;SDS011;33403;43.608;1.458;2023-09-19T05:23:21;6.32;;;2.50;;
47659;SDS011;33403;43.608;1.458;2023-09-19T05:25:46;6.82;;;2.40;;
47659;SDS011;33403;43.608;1.458;2023-09-19T05:28:12;6.60;;;2.53;;
47659;SDS011;33403;43.608;1.458;2023-09-19T05:30:40;4.85;;;2.15;;
47659;SDS011;33403;43.608;1.458;2023-09-19T05:33:08;5.65;;;2.40;;
47659;SDS011;33403;43.608;1.458;2023-09-19T05:35:34;7.45;;;2.33;;
47659;SDS011;33403;43.608;1.458;2023-09-19T05:38:02;6.57;;;2.50;;
47659;SDS011;33403;43.608;1.458;2023-09-19T05:40:30;5.63;;;2.28;;
47659;SDS011;33403;43.608;1.458;2023-09-19T05:42:56;6.25;;;2.72;;
47659;SDS011;33403;43.608;1.458;2023-09-19T05:45:22;9.18;;;2.60;;
47659;SDS011;33403;43.608;1.458;2023-09-19T05:47:51;6.82;;;2.33;;
47659;SDS011;33403;43.608;1.458;2023-09-19T05:50:20;6.00;;;2.63;;
47659;SDS011;33403;43.608;1.458;2023-09-19T05:52:53;7.43;;;2.60;;
47659;SDS011;33403;43.608;1.458;2023-09-19T05:55:20;8.13;;;2.88;;
47659;SDS011;33403;43.608;1.458;2023-09-19T05:57:50;9.05;;;2.78;;
47659;SDS011;33403;43.608;1.458;2023-09-19T06:00:17;8.13;;;2.67;;
47659;SDS011;33403;43.608;1.458;2023-09-19T06:02:51;9.63;;;2.67;;
47659;SDS011;33403;43.608;1.458;2023-09-19T06:05:25;6.07;;;2.70;;
47659;SDS011;33403;43.608;1.458;2023-09-19T06:07:57;6.00;;;2.35;;
47659;SDS011;33403;43.608;1.458;2023-09-19T06:10:28;7.72;;;2.40;;
47659;SDS011;33403;43.608;1.458;2023-09-19T06:12:57;7.15;;;2.58;;
47659;SDS011;33403;43.608;1.458;2023-09-19T06:15:23;6.28;;;2.40;;
47659;SDS011;33403;43.608;1.458;2023-09-19T06:17:51;8.15;;;2.58;;
47659;SDS011;33403;43.608;1.458;2023-09-19T06:20:20;6.15;;;2.60;;
47659;SDS011;33403;43.608;1.458;2023-09-19T06:22:47;12.48;;;2.92;;
47659;SDS011;33403;43.608;1.458;2023-09-19T06:25:14;6.15;;;2.60;;
47659;SDS011;33403;43.608;1.458;2023-09-19T06:27:47;9.05;;;3.08;;
47659;SDS011;33403;43.608;1.458;2023-09-19T06:30:14;8.70;;;2.60;;
47659;SDS011;33403;43.608;1.458;2023-09-19T06:32:40;8.30;;;2.75;;
47659;SDS011;33403;43.608;1.458;2023-09-19T06:35:12;9.07;;;2.70;;
47659;SDS011;33403;43.608;1.458;2023-09-19T06:37:40;8.65;;;3.15;;
47659;SDS011;33403;43.608;1.458;2023-09-19T06:42:42;9.23;;;2.88;;
47659;SDS011;33403;43.608;1.458;2023-09-19T06:45:11;6.10;;;2.85;;
47659;SDS011;33403;43.608;1.458;2023-09-19T06:47:42;7.65;;;2.80;;
47659;SDS011;33403;43.608;1.458;2023-09-19T06:50:14;8.63;;;2.47;;
47659;SDS011;33403;43.608;1.458;2023-09-19T06:52:40;7.07;;;2.70;;
47659;SDS011;33403;43.608;1.458;2023-09-19T06:55:07;8.88;;;2.95;;
47659;SDS011;33403;43.608;1.458;2023-09-19T06:57:34;11.20;;;3.08;;
47659;SDS011;33403;43.608;1.458;2023-09-19T07:00:00;10.15;;;3.20;;
47659;SDS011;33403;43.608;1.458;2023-09-19T07:02:26;11.63;;;3.40;;
47659;SDS011;33403;43.608;1.458;2023-09-19T07:04:52;8.23;;;2.90;;
47659;SDS011;33403;43.608;1.458;2023-09-19T07:07:18;11.43;;;2.65;;
47659;SDS011;33403;43.608;1.458;2023-09-19T07:09:43;8.50;;;2.88;;
47659;SDS011;33403;43.608;1.458;2023-09-19T07:12:09;5.05;;;2.47;;
47659;SDS011;33403;43.608;1.458;2023-09-19T07:14:35;8.95;;;2.83;;
47659;SDS011;33403;43.608;1.458;2023-09-19T07:17:01;8.57;;;3.00;;
47659;SDS011;33403;43.608;1.458;2023-09-19T07:19:27;7.80;;;2.70;;
47659;SDS011;33403;43.608;1.458;2023-09-19T07:21:56;7.03;;;3.00;;
47659;SDS011;33403;43.608;1.458;2023-09-19T07:24:24;8.35;;;2.63;;
47659;SDS011;33403;43.608;1.458;2023-09-19T07:26:51;7.90;;;2.72;;
47659;SDS011;33403;43.608;1.458;2023-09-19T07:29:17;7.53;;;2.70;;
47659;SDS011;33403;43.608;1.458;2023-09-19T07:31:42;7.43;;;2.50;;
47659;SDS011;33403;43.608;1.458;2023-09-19T07:34:09;9.18;;;2.85;;
47659;SDS011;33403;43.608;1.458;2023-09-19T07:36:35;7.07;;;2.50;;
47659;SDS011;33403;43.608;1.458;2023-09-19T07:39:02;9.35;;;2.60;;
47659;SDS011;33403;43.608;1.458;2023-09-19T07:41:31;9.40;;;2.67;;
47659;SDS011;33403;43.608;1.458;2023-09-19T07:43:57;5.95;;;2.30;;
47659;SDS011;33403;43.608;1.458;2023-09-19T07:46:23;10.32;;;2.38;;
47659;SDS011;33403;43.608;1.458;2023-09-19T07:48:51;5.95;;;2.10;;
47659;SDS011;33403;43.608;1.458;2023-09-19T07:51:16;7.68;;;2.20;;
47659;SDS011;33403;43.608;1.458;2023-09-19T07:53:42;10.10;;;2.50;;
47659;SDS011;33403;43.608;1.458;2023-09-19T07:56:09;8.32;;;2.35;;
47659;SDS011;33403;43.608;1.458;2023-09-19T07:58:35;6.68;;;2.22;;
47659;SDS011;33403;43.608;1.458;2023-09-19T08:01:08;9.65;;;2.55;;
47659;SDS011;33403;43.608;1.458;2023-09-19T08:03:35;9.98;;;2.65;;
47659;SDS011;33403;43.608;1.458;2023-09-19T08:06:05;6.22;;;2.20;;
47659;SDS011;33403;43.608;1.458;2023-09-19T08:08:32;7.68;;;2.33;;
47659;SDS011;33403;43.608;1.458;2023-09-19T08:11:02;9.48;;;2.22;;
47659;SDS011;33403;43.608;1.458;2023-09-19T08:13:35;5.80;;;2.28;;
47659;SDS011;33403;43.608;1.458;2023-09-19T08:16:01;10.35;;;2.47;;
47659;SDS011;33403;43.608;1.458;2023-09-19T08:18:28;7.05;;;2.30;;
47659;SDS011;33403;43.608;1.458;2023-09-19T08:20:55;12.07;;;2.50;;
47659;SDS011;33403;43.608;1.458;2023-09-19T08:23:23;4.93;;;2.10;;
47659;SDS011;33403;43.608;1.458;2023-09-19T08:25:49;8.90;;;2.17;;
47659;SDS011;33403;43.608;1.458;2023-09-19T08:28:15;5.93;;;2.10;;
47659;SDS011;33403;43.608;1.458;2023-09-19T08:30:47;8.93;;;2.30;;
47659;SDS011;33403;43.608;1.458;2023-09-19T08:33:13;5.18;;;1.90;;
47659;SDS011;33403;43.608;1.458;2023-09-19T08:35:40;7.82;;;2.60;;
47659;SDS011;33403;43.608;1.458;2023-09-19T08:38:06;7.80;;;2.17;;
47659;SDS011;33403;43.608;1.458;2023-09-19T08:40:32;8.27;;;2.00;;
47659;SDS011;33403;43.608;1.458;2023-09-19T08:43:01;6.35;;;2.00;;
47659;SDS011;33403;43.608;1.458;2023-09-19T08:45:28;6.15;;;2.10;;
47659;SDS011;33403;43.608;1.458;2023-09-19T08:47:57;9.00;;;2.15;;
47659;SDS011;33403;43.608;1.458;2023-09-19T08:50:51;8.65;;;1.90;;
47659;SDS011;33403;43.608;1.458;2023-09-19T08:54:08;5.78;;;1.90;;
47659;SDS011;33403;43.608;1.458;2023-09-19T08:56:28;5.53;;;1.98;;
47659;SDS011;33403;43.608;1.458;2023-09-19T08:58:59;4.20;;;1.80;;
47659;SDS011;33403;43.608;1.458;2023-09-19T09:01:27;7.72;;;1.90;;
47659;SDS011;33403;43.608;1.458;2023-09-19T09:03:54;8.68;;;2.10;;
47659;SDS011;33403;43.608;1.458;2023-09-19T09:06:21;6.28;;;1.88;;
47659;SDS011;33403;43.608;1.458;2023-09-19T09:08:48;8.18;;;1.92;;
47659;SDS011;33403;43.608;1.458;2023-09-19T09:11:18;7.13;;;1.92;;
47659;SDS011;33403;43.608;1.458;2023-09-19T09:13:44;5.13;;;1.80;;
47659;SDS011;33403;43.608;1.458;2023-09-19T09:16:11;5.28;;;1.65;;
47659;SDS011;33403;43.608;1.458;2023-09-19T09:18:37;7.90;;;1.70;;
47659;SDS011;33403;43.608;1.458;2023-09-19T09:21:03;5.03;;;1.45;;
47659;SDS011;33403;43.608;1.458;2023-09-19T09:23:29;6.75;;;2.15;;
47659;SDS011;33403;43.608;1.458;2023-09-19T09:25:58;5.05;;;1.88;;
47659;SDS011;33403;43.608;1.458;2023-09-19T09:28:27;6.32;;;1.60;;
47659;SDS011;33403;43.608;1.458;2023-09-19T09:30:55;5.07;;;1.70;;
47659;SDS011;33403;43.608;1.458;2023-09-19T09:33:23;6.40;;;1.67;;
47659;SDS011;33403;43.608;1.458;2023-09-19T09:35:56;7.05;;;1.75;;
47659;SDS011;33403;43.608;1.458;2023-09-19T09:38:44;5.22;;;1.65;;
47659;SDS011;33403;43.608;1.458;2023-09-19T09:41:11;5.35;;;1.73;;
47659;SDS011;33403;43.608;1.458;2023-09-19T09:43:41;6.03;;;1.52;;
47659;SDS011;33403;43.608;1.458;2023-09-19T09:46:17;5.75;;;1.65;;
47659;SDS011;33403;43.608;1.458;2023-09-19T09:49:05;5.30;;;1.63;;
47659;SDS011;33403;43.608;1.458;2023-09-19T09:51:50;4.30;;;1.58;;
47659;SDS011;33403;43.608;1.458;2023-09-19T09:54:25;8.25;;;1.73;;
47659;SDS011;33403;43.608;1.458;2023-09-19T09:57:05;8.15;;;1.70;;
47659;SDS011;33403;43.608;1.458;2023-09-19T09:59:50;5.28;;;2.05;;
47659;SDS011;33403;43.608;1.458;2023-09-19T10:02:29;4.65;;;1.40;;
47659;SDS011;33403;43.608;1.458;2023-09-19T10:07:53;4.82;;;1.30;;
47659;SDS011;33403;43.608;1.458;2023-09-19T10:13:11;5.22;;;1.40;;
47659;SDS011;33403;43.608;1.458;2023-09-19T10:15:49;4.50;;;1.45;;
47659;SDS011;33403;43.608;1.458;2023-09-19T10:18:34;5.68;;;1.20;;
47659;SDS011;33403;43.608;1.458;2023-09-19T10:21:03;3.67;;;1.40;;
47659;SDS011;33403;43.608;1.458;2023-09-19T10:23:31;3.92;;;1.30;;
47659;SDS011;33403;43.608;1.458;2023-09-19T10:25:59;5.95;;;1.45;;
47659;SDS011;33403;43.608;1.458;2023-09-19T10:28:27;5.20;;;1.35;;
47659;SDS011;33403;43.608;1.458;2023-09-19T10:30:54;2.72;;;1.40;;
47659;SDS011;33403;43.608;1.458;2023-09-19T10:33:24;4.93;;;1.80;;
47659;SDS011;33403;43.608;1.458;2023-09-19T10:35:55;4.00;;;1.60;;
47659;SDS011;33403;43.608;1.458;2023-09-19T10:38:25;5.85;;;1.90;;
47659;SDS011;33403;43.608;1.458;2023-09-19T10:40:53;4.45;;;1.88;;
47659;SDS011;33403;43.608;1.458;2023-09-19T10:43:24;7.03;;;1.77;;
47659;SDS011;33403;43.608;1.458;2023-09-19T10:45:53;5.50;;;1.50;;
47659;SDS011;33403;43.608;1.458;2023-09-19T10:48:25;3.20;;;1.30;;
47659;SDS011;33403;43.608;1.458;2023-09-19T10:51:06;6.80;;;1.45;;
47659;SDS011;33403;43.608;1.458;2023-09-19T10:53:50;3.22;;;1.10;;
47659;SDS011;33403;43.608;1.458;2023-09-19T10:56:35;5.63;;;1.30;;
47659;SDS011;33403;43.608;1.458;2023-09-19T10:59:05;2.67;;;1.23;;
47659;SDS011;33403;43.608;1.458;2023-09-19T11:01:42;4.47;;;1.30;;
47659;SDS011;33403;43.608;1.458;2023-09-19T11:04:22;3.00;;;1.17;;
47659;SDS011;33403;43.608;1.458;2023-09-19T11:09:45;3.05;;;1.30;;
47659;SDS011;33403;43.608;1.458;2023-09-19T11:12:11;2.35;;;0.88;;
47659;SDS011;33403;43.608;1.458;2023-09-19T11:15:00;2.28;;;0.90;;
47659;SDS011;33403;43.608;1.458;2023-09-19T11:17:36;5.00;;;1.20;;
47659;SDS011;33403;43.608;1.458;2023-09-19T11:30:50;10.70;;;4.40;;
47659;SDS011;33403;43.608;1.458;2023-09-19T11:33:30;9.07;;;2.88;;
47659;SDS011;33403;43.608;1.458;2023-09-19T11:43:46;6.88;;;1.35;;
47659;SDS011;33403;43.608;1.458;2023-09-19T11:46:13;10.38;;;1.63;;
47659;SDS011;33403;43.608;1.458;2023-09-19T11:48:41;4.90;;;1.48;;
47659;SDS011;33403;43.608;1.458;2023-09-19T11:51:43;4.88;;;1.20;;
47659;SDS011;33403;43.608;1.458;2023-09-19T11:54:10;5.05;;;1.27;;
47659;SDS011;33403;43.608;1.458;2023-09-19T11:56:43;1.60;;;0.95;;
47659;SDS011;33403;43.608;1.458;2023-09-19T11:59:10;3.13;;;1.02;;
47659;SDS011;33403;43.608;1.458;2023-09-19T12:01:37;3.42;;;1.10;;
47659;SDS011;33403;43.608;1.458;2023-09-19T12:04:11;2.40;;;1.20;;
47659;SDS011;33403;43.608;1.458;2023-09-19T12:06:37;3.58;;;1.20;;
47659;SDS011;33403;43.608;1.458;2023-09-19T12:09:07;3.97;;;1.40;;
47659;SDS011;33403;43.608;1.458;2023-09-19T12:11:41;6.10;;;1.70;;
47659;SDS011;33403;43.608;1.458;2023-09-19T12:14:09;3.45;;;1.30;;
47659;SDS011;33403;43.608;1.458;2023-09-19T12:16:35;4.00;;;1.10;;
47659;SDS011;33403;43.608;1.458;2023-09-19T12:19:20;3.03;;;1.00;;
47659;SDS011;33403;43.608;1.458;2023-09-19T12:21:56;4.18;;;1.20;;
47659;SDS011;33403;43.608;1.458;2023-09-19T12:24:25;4.28;;;1.30;;
47659;SDS011;33403;43.608;1.458;2023-09-19T12:26:54;3.85;;;1.10;;
47659;SDS011;33403;43.608;1.458;2023-09-19T12:29:30;3.85;;;1.00;;
47659;SDS011;33403;43.608;1.458;2023-09-19T12:32:33;4.03;;;1.10;;
47659;SDS011;33403;43.608;1.458;2023-09-19T12:35:05;2.72;;;1.10;;
47659;SDS011;33403;43.608;1.458;2023-09-19T12:37:35;2.22;;;1.00;;
47659;SDS011;33403;43.608;1.458;2023-09-19T12:40:05;1.65;;;0.90;;
47659;SDS011;33403;43.608;1.458;2023-09-19T12:42:47;3.65;;;1.10;;
47659;SDS011;33403;43.608;1.458;2023-09-19T12:45:14;5.65;;;1.20;;
47659;SDS011;33403;43.608;1.458;2023-09-19T12:53:31;5.43;;;1.13;;
47659;SDS011;33403;43.608;1.458;2023-09-19T12:56:05;2.67;;;1.20;;
47659;SDS011;33403;43.608;1.458;2023-09-19T12:58:33;4.72;;;1.00;;
47659;SDS011;33403;43.608;1.458;2023-09-19T13:01:00;3.17;;;0.93;;
47659;SDS011;33403;43.608;1.458;2023-09-19T13:03:30;4.43;;;0.90;;
47659;SDS011;33403;43.608;1.458;2023-09-19T13:06:03;3.97;;;1.00;;
47659;SDS011;33403;43.608;1.458;2023-09-19T13:08:30;3.72;;;1.42;;
47659;SDS011;33403;43.608;1.458;2023-09-19T13:11:09;3.17;;;0.90;;
47659;SDS011;33403;43.608;1.458;2023-09-19T13:13:38;4.28;;;0.95;;
47659;SDS011;33403;43.608;1.458;2023-09-19T13:16:09;2.83;;;1.10;;
47659;SDS011;33403;43.608;1.458;2023-09-19T13:19:12;1.88;;;0.82;;
47659;SDS011;33403;43.608;1.458;2023-09-19T13:21:31;2.92;;;0.98;;
47659;SDS011;33403;43.608;1.458;2023-09-19T13:26:48;4.10;;;1.08;;
47659;SDS011;33403;43.608;1.458;2023-09-19T13:29:14;3.65;;;1.20;;
47659;SDS011;33403;43.608;1.458;2023-09-19T13:31:46;4.30;;;1.10;;
47659;SDS011;33403;43.608;1.458;2023-09-19T13:34:18;2.47;;;1.00;;
47659;SDS011;33403;43.608;1.458;2023-09-19T13:36:44;2.83;;;0.98;;
47659;SDS011;33403;43.608;1.458;2023-09-19T13:39:13;3.03;;;1.00;;
47659;SDS011;33403;43.608;1.458;2023-09-19T13:41:44;2.85;;;1.10;;
47659;SDS011;33403;43.608;1.458;2023-09-19T13:44:11;4.35;;;2.30;;
47659;SDS011;33403;43.608;1.458;2023-09-19T13:46:37;8.18;;;4.32;;
47659;SDS011;33403;43.608;1.458;2023-09-19T13:49:03;7.57;;;1.52;;
47659;SDS011;33403;43.608;1.458;2023-09-19T13:51:30;3.05;;;1.00;;
47659;SDS011;33403;43.608;1.458;2023-09-19T13:53:56;2.80;;;0.98;;
47659;SDS011;33403;43.608;1.458;2023-09-19T13:56:22;3.10;;;1.13;;
47659;SDS011;33403;43.608;1.458;2023-09-19T13:58:48;3.10;;;1.13;;
47659;SDS011;33403;43.608;1.458;2023-09-19T14:01:13;3.05;;;1.00;;
47659;SDS011;33403;43.608;1.458;2023-09-19T14:03:39;2.30;;;0.93;;
47659;SDS011;33403;43.608;1.458;2023-09-19T14:06:06;1.60;;;1.00;;
47659;SDS011;33403;43.608;1.458;2023-09-19T14:08:32;2.80;;;0.98;;
47659;SDS011;33403;43.608;1.458;2023-09-19T14:10:59;2.58;;;1.02;;
47659;SDS011;33403;43.608;1.458;2023-09-19T14:13:30;2.78;;;1.10;;
47659;SDS011;33403;43.608;1.458;2023-09-19T14:15:56;3.10;;;1.08;;
47659;SDS011;33403;43.608;1.458;2023-09-19T14:18:21;3.25;;;1.30;;
47659;SDS011;33403;43.608;1.458;2023-09-19T14:20:47;1.52;;;1.05;;
47659;SDS011;33403;43.608;1.458;2023-09-19T14:23:13;2.85;;;1.10;;
47659;SDS011;33403;43.608;1.458;2023-09-19T14:25:38;3.35;;;1.20;;
47659;SDS011;33403;43.608;1.458;2023-09-19T14:28:04;3.80;;;0.95;;
47659;SDS011;33403;43.608;1.458;2023-09-19T14:30:33;2.70;;;1.10;;
47659;SDS011;33403;43.608;1.458;2023-09-19T14:32:58;2.60;;;1.00;;
47659;SDS011;33403;43.608;1.458;2023-09-19T14:35:24;1.63;;;0.82;;
47659;SDS011;33403;43.608;1.458;2023-09-19T14:37:50;2.45;;;1.27;;
47659;SDS011;33403;43.608;1.458;2023-09-19T14:40:16;4.30;;;0.98;;
47659;SDS011;33403;43.608;1.458;2023-09-19T14:42:42;2.58;;;1.10;;
47659;SDS011;33403;43.608;1.458;2023-09-19T14:45:10;3.67;;;1.20;;
47659;SDS011;33403;43.608;1.458;2023-09-19T14:47:36;2.67;;;1.00;;
47659;SDS011;33403;43.608;1.458;2023-09-19T14:50:03;2.60;;;1.10;;
47659;SDS011;33403;43.608;1.458;2023-09-19T14:52:31;2.78;;;1.20;;
47659;SDS011;33403;43.608;1.458;2023-09-19T14:55:01;2.58;;;1.00;;
47659;SDS011;33403;43.608;1.458;2023-09-19T14:57:27;1.95;;;0.90;;
47659;SDS011;33403;43.608;1.458;2023-09-19T14:59:52;5.68;;;1.20;;
47659;SDS011;33403;43.608;1.458;2023-09-19T15:02:19;3.53;;;1.25;;
47659;SDS011;33403;43.608;1.458;2023-09-19T15:04:45;4.57;;;1.08;;
47659;SDS011;33403;43.608;1.458;2023-09-19T15:07:11;3.72;;;1.23;;
47659;SDS011;33403;43.608;1.458;2023-09-19T15:09:40;4.55;;;1.30;;
47659;SDS011;33403;43.608;1.458;2023-09-19T15:12:06;3.15;;;1.38;;
47659;SDS011;33403;43.608;1.458;2023-09-19T15:14:32;2.78;;;1.27;;
47659;SDS011;33403;43.608;1.458;2023-09-19T15:16:57;4.05;;;1.40;;
47659;SDS011;33403;43.608;1.458;2023-09-19T15:19:23;3.33;;;1.30;;
47659;SDS011;33403;43.608;1.458;2023-09-19T15:21:49;2.85;;;1.52;;
47659;SDS011;33403;43.608;1.458;2023-09-19T15:24:14;9.18;;;4.75;;
47659;SDS011;33403;43.608;1.458;2023-09-19T15:26:42;4.53;;;2.00;;
47659;SDS011;33403;43.608;1.458;2023-09-19T15:29:08;3.15;;;1.30;;
47659;SDS011;33403;43.608;1.458;2023-09-19T15:31:35;10.75;;;1.80;;
47659;SDS011;33403;43.608;1.458;2023-09-19T15:34:04;4.50;;;1.48;;
47659;SDS011;33403;43.608;1.458;2023-09-19T15:36:30;3.35;;;1.45;;
47659;SDS011;33403;43.608;1.458;2023-09-19T15:41:31;3.47;;;1.30;;
47659;SDS011;33403;43.608;1.458;2023-09-19T15:43:59;4.53;;;1.30;;
47659;SDS011;33403;43.608;1.458;2023-09-19T15:46:30;3.03;;;1.20;;
47659;SDS011;33403;43.608;1.458;2023-09-19T15:48:58;5.32;;;1.20;;
47659;SDS011;33403;43.608;1.458;2023-09-19T15:51:25;3.83;;;1.10;;